createdAt,value
2022-11-16T00:01:36.528Z,95936.25
2022-11-16T00:04:07.160Z,95934.23
2022-11-16T00:06:37.781Z,95936.45
2022-11-16T00:09:24.310Z,95931.80
2022-11-16T00:12:04.162Z,95930.45
2022-11-16T00:14:36.461Z,95929.80
2022-11-16T00:17:07.369Z,95939.44
2022-11-16T00:19:37.932Z,95935.98
2022-11-16T00:22:08.203Z,95932.63
2022-11-16T00:24:38.359Z,95927.95
2022-11-16T00:27:08.852Z,95929.08
2022-11-16T00:29:39.657Z,95930.92
2022-11-16T00:32:10.097Z,95932.30
2022-11-16T00:34:40.875Z,95937.92
2022-11-16T00:37:11.396Z,95934.02
2022-11-16T00:39:42.476Z,95922.73
2022-11-16T00:42:16.371Z,95919.89
2022-11-16T00:44:46.442Z,95918.23
2022-11-16T00:47:16.765Z,95913.41
2022-11-16T00:49:47.073Z,95913.59
2022-11-16T00:52:17.214Z,95907.23
2022-11-16T00:54:46.335Z,95901.38
2022-11-16T00:57:17.411Z,95898.33
2022-11-16T00:59:48.271Z,95893.81
2022-11-16T01:02:17.720Z,95885.80
2022-11-16T01:04:48.072Z,95882.97
2022-11-16T01:07:18.751Z,95884.21
2022-11-16T01:09:50.700Z,95880.63
2022-11-16T01:12:19.793Z,95871.28
2022-11-16T01:14:50.406Z,95871.90
2022-11-16T01:17:20.658Z,95881.69
2022-11-16T01:19:51.275Z,95876.66
2022-11-16T01:22:21.793Z,95871.27
2022-11-16T01:24:51.694Z,95870.02
2022-11-16T01:27:22.471Z,95868.98
2022-11-16T01:29:53.262Z,95872.65
2022-11-16T01:32:24.295Z,95867.64
2022-11-16T01:34:55.343Z,95869.31
2022-11-16T01:37:33.333Z,95863.74
2022-11-16T01:40:04.600Z,95865.29
2022-11-16T01:42:34.336Z,95861.30
2022-11-16T01:45:20.499Z,95859.70
2022-11-16T01:47:56.007Z,95858.66
2022-11-16T01:50:33.148Z,95856.76
2022-11-16T01:53:06.567Z,95860.98
2022-11-16T01:55:51.675Z,95850.00
2022-11-16T01:58:28.782Z,95841.73
2022-11-16T02:01:04.977Z,95837.72
2022-11-16T02:03:40.915Z,95841.79
2022-11-16T02:06:14.075Z,95831.71
2022-11-16T02:09:45.684Z,95826.73
2022-11-16T02:12:34.076Z,95819.00
2022-11-16T02:15:28.943Z,95815.83
2022-11-16T02:18:23.574Z,95809.56
2022-11-16T02:21:21.911Z,95808.73
2022-11-16T02:24:24.826Z,95805.31
2022-11-16T02:27:08.629Z,95811.17
2022-11-16T02:29:46.576Z,95811.77
2022-11-16T02:32:31.136Z,95802.86
2022-11-16T02:35:06.316Z,95802.42
2022-11-16T02:37:44.292Z,95803.38
2022-11-16T02:40:16.942Z,95800.09
2022-11-16T02:42:53.732Z,95790.95
2022-11-16T02:45:34.329Z,95789.85
2022-11-16T02:48:15.822Z,95796.19
2022-11-16T02:50:49.471Z,95788.84
2022-11-16T02:53:24.354Z,95789.38
2022-11-16T02:55:57.268Z,95785.40
2022-11-16T02:58:29.080Z,95786.69
2022-11-16T03:01:19.381Z,95775.33
2022-11-16T03:03:58.672Z,95777.06
2022-11-16T03:06:36.868Z,95777.34
2022-11-16T03:09:15.308Z,95771.23
2022-11-16T03:12:02.603Z,95764.86
2022-11-16T03:14:49.318Z,95764.89
2022-11-16T03:17:32.171Z,95762.43
2022-11-16T03:20:06.095Z,95754.34
2022-11-16T03:22:46.105Z,95752.98
2022-11-16T03:25:20.545Z,95750.29
2022-11-16T03:28:04.580Z,95751.48
2022-11-16T03:30:50.607Z,95751.40
2022-11-16T03:33:29.466Z,95753.44
2022-11-16T03:36:32.995Z,95747.23
2022-11-16T03:39:12.985Z,95737.69
2022-11-16T03:41:45.634Z,95733.38
2022-11-16T03:44:19.957Z,95730.23
2022-11-16T03:46:50.807Z,95726.94
2022-11-16T03:49:25.472Z,95730.31
2022-11-16T03:51:59.004Z,95731.81
2022-11-16T03:54:29.378Z,95727.08
2022-11-16T03:56:59.988Z,95725.63
2022-11-16T03:59:30.639Z,95723.20
2022-11-16T04:02:00.981Z,95720.14
2022-11-16T04:04:51.497Z,95721.40
2022-11-16T04:07:41.328Z,95708.71
2022-11-16T04:10:33.390Z,95706.57
2022-11-16T04:13:24.875Z,95703.12
2022-11-16T04:16:15.320Z,95699.95
2022-11-16T04:19:06.816Z,95696.04
2022-11-16T04:22:00.706Z,95694.30
2022-11-16T04:24:38.676Z,95697.48
2022-11-16T04:27:39.314Z,95693.92
2022-11-16T04:30:10.137Z,95681.95
2022-11-16T04:33:00.449Z,95679.11
2022-11-16T04:35:50.848Z,95671.48
2022-11-16T04:38:22.003Z,95673.96
2022-11-16T04:40:52.451Z,95675.66
2022-11-16T04:43:23.565Z,95669.83
2022-11-16T04:46:14.490Z,95671.52
2022-11-16T04:48:46.774Z,95674.23
2022-11-16T04:51:17.385Z,95676.23
2022-11-16T04:53:47.731Z,95667.54
2022-11-16T04:56:22.333Z,95666.27
2022-11-16T04:58:54.112Z,95661.93
2022-11-16T05:01:46.249Z,95664.00
2022-11-16T05:04:17.582Z,95657.23
2022-11-16T05:06:48.646Z,95660.73
2022-11-16T05:09:18.692Z,95659.48
2022-11-16T05:11:49.068Z,95656.46
2022-11-16T05:14:17.984Z,95656.95
2022-11-16T05:16:48.229Z,95653.41
2022-11-16T05:19:37.801Z,95654.77
2022-11-16T05:22:08.620Z,95653.55
2022-11-16T05:24:39.000Z,95647.93
2022-11-16T05:27:12.312Z,95647.14
2022-11-16T05:29:42.626Z,95648.45
2022-11-16T05:32:14.104Z,95648.82
2022-11-16T05:34:44.343Z,95645.63
2022-11-16T05:37:15.253Z,95640.95
2022-11-16T05:39:47.474Z,95639.66
2022-11-16T05:42:18.364Z,95640.84
2022-11-16T05:44:48.587Z,95642.23
2022-11-16T05:47:19.276Z,95636.91
2022-11-16T05:49:49.681Z,95631.31
2022-11-16T05:52:20.887Z,95634.10
2022-11-16T05:54:49.965Z,95636.49
2022-11-16T05:57:20.203Z,95635.36
2022-11-16T05:59:50.298Z,95634.58
2022-11-16T06:02:20.419Z,95630.84
2022-11-16T06:04:51.207Z,95632.19
2022-11-16T06:07:21.438Z,95633.45
2022-11-16T06:09:51.451Z,95625.90
2022-11-16T06:12:25.784Z,95622.71
2022-11-16T06:14:55.761Z,95625.22
2022-11-16T06:17:26.331Z,95625.91
2022-11-16T06:19:56.829Z,95625.65
2022-11-16T06:22:26.981Z,95629.36
2022-11-16T06:24:58.206Z,95636.20
2022-11-16T06:27:29.116Z,95639.98
2022-11-16T06:29:59.676Z,95642.83
2022-11-16T06:32:32.470Z,95641.27
2022-11-16T06:35:03.580Z,95628.27
2022-11-16T06:37:34.222Z,95626.38
2022-11-16T06:40:05.225Z,95631.05
2022-11-16T06:42:38.354Z,95628.80
2022-11-16T06:45:10.606Z,95625.41
2022-11-16T06:47:43.849Z,95626.33
2022-11-16T06:50:15.057Z,95628.81
2022-11-16T06:52:50.266Z,95627.69
2022-11-16T06:55:19.803Z,95626.23
2022-11-16T06:57:50.945Z,95624.30
2022-11-16T07:00:21.438Z,95619.68
2022-11-16T07:02:53.199Z,95612.31
2022-11-16T07:05:23.576Z,95609.20
2022-11-16T07:07:59.377Z,95606.67
2022-11-16T07:10:30.403Z,95608.23
2022-11-16T07:13:05.963Z,95609.91
2022-11-16T07:15:36.835Z,95608.77
2022-11-16T07:18:08.409Z,95605.49
2022-11-16T07:20:40.383Z,95604.45
2022-11-16T07:23:14.201Z,95603.59
2022-11-16T07:25:47.996Z,95594.29
2022-11-16T07:28:24.040Z,95590.04
2022-11-16T07:30:54.450Z,95587.27
2022-11-16T07:33:32.096Z,95583.81
2022-11-16T07:36:22.719Z,95578.98
2022-11-16T07:38:53.588Z,95579.91
2022-11-16T07:41:24.631Z,95572.29
2022-11-16T07:44:11.924Z,95567.64
2022-11-16T07:46:47.028Z,95572.11
2022-11-16T07:49:19.492Z,95568.67
2022-11-16T07:51:58.903Z,95568.86
2022-11-16T07:54:39.702Z,95565.11
2022-11-16T07:57:10.635Z,95565.70
2022-11-16T07:59:43.141Z,95565.86
2022-11-16T08:02:12.814Z,95558.70
2022-11-16T08:04:44.019Z,95557.62
2022-11-16T08:07:14.836Z,95556.73
2022-11-16T08:09:50.414Z,95553.61
2022-11-16T08:12:20.756Z,95553.91
2022-11-16T08:14:51.352Z,95551.79
2022-11-16T08:17:21.442Z,95545.80
2022-11-16T08:19:54.174Z,95545.02
2022-11-16T08:22:25.148Z,95543.73
2022-11-16T08:24:55.590Z,95547.73
2022-11-16T08:27:26.753Z,95544.45
2022-11-16T08:29:58.308Z,95543.44
2022-11-16T08:32:30.207Z,95538.16
2022-11-16T08:35:00.567Z,95528.73
2022-11-16T08:37:32.370Z,95530.67
2022-11-16T08:40:03.996Z,95531.20
2022-11-16T08:42:42.260Z,95531.41
2022-11-16T08:45:14.736Z,95530.12
2022-11-16T08:47:45.512Z,95530.45
2022-11-16T08:50:14.390Z,95535.38
2022-11-16T08:52:44.940Z,95537.35
2022-11-16T08:55:17.721Z,95534.85
2022-11-16T08:57:47.747Z,95527.49
2022-11-16T09:00:19.427Z,95523.95
2022-11-16T09:02:51.587Z,95521.77
2022-11-16T09:05:21.198Z,95525.36
2022-11-16T09:07:50.837Z,95523.16
2022-11-16T09:10:23.489Z,95520.42
2022-11-16T09:12:53.561Z,95523.13
2022-11-16T09:15:23.824Z,95523.16
2022-11-16T09:17:55.344Z,95524.89
2022-11-16T09:20:25.228Z,95527.05
2022-11-16T09:22:55.364Z,95523.88
2022-11-16T09:25:25.994Z,95525.48
2022-11-16T09:27:56.294Z,95524.27
2022-11-16T09:30:30.322Z,95522.55
2022-11-16T09:33:00.731Z,95515.71
2022-11-16T09:35:31.668Z,95511.57
2022-11-16T09:38:02.191Z,95506.98
2022-11-16T09:40:35.911Z,95504.56
2022-11-16T09:43:14.276Z,95502.65
2022-11-16T09:45:49.084Z,95501.19
2022-11-16T09:48:22.510Z,95496.19
2022-11-16T09:50:56.253Z,95494.65
2022-11-16T09:53:41.528Z,95482.71
2022-11-16T09:56:27.179Z,95475.85
2022-11-16T09:59:13.549Z,95470.05
2022-11-16T10:01:57.355Z,95462.64
2022-11-16T10:04:38.862Z,95473.63
2022-11-16T10:07:26.135Z,95470.50
2022-11-16T10:09:56.887Z,95462.86
2022-11-16T10:12:44.124Z,95451.52
2022-11-16T10:15:52.242Z,95440.95
2022-11-16T10:18:44.314Z,95434.86
2022-11-16T10:21:51.954Z,95439.13
2022-11-16T10:24:30.672Z,95443.98
2022-11-16T10:27:02.508Z,95440.02
2022-11-16T10:29:52.375Z,95432.48
2022-11-16T10:32:28.897Z,95427.27
2022-11-16T10:35:08.290Z,95428.23
2022-11-16T10:37:45.235Z,95424.18
2022-11-16T10:40:47.009Z,95423.74
2022-11-16T10:43:28.737Z,95416.02
2022-11-16T10:46:24.337Z,95412.31
2022-11-16T10:49:16.432Z,95412.35
2022-11-16T10:51:46.096Z,95409.20
2022-11-16T10:54:18.849Z,95411.46
2022-11-16T10:56:56.085Z,95410.16
2022-11-16T10:59:45.156Z,95413.91
2022-11-16T11:02:36.495Z,95413.08
2022-11-16T11:05:23.420Z,95416.67
2022-11-16T11:08:04.152Z,95409.21
2022-11-16T11:10:39.218Z,95409.41
2022-11-16T11:13:15.569Z,95403.97
2022-11-16T11:15:45.775Z,95401.27
2022-11-16T11:18:28.974Z,95402.45
2022-11-16T11:21:23.298Z,95401.78
2022-11-16T11:24:10.623Z,95397.24
2022-11-16T11:26:53.818Z,95394.34
2022-11-16T11:29:35.107Z,95392.37
2022-11-16T11:32:13.352Z,95388.45
2022-11-16T11:34:48.012Z,95383.67
2022-11-16T11:37:26.187Z,95378.99
2022-11-16T11:40:18.914Z,95373.03
2022-11-16T11:42:56.038Z,95369.68
2022-11-16T11:45:53.944Z,95365.56
2022-11-16T11:48:26.079Z,95369.19
2022-11-16T11:50:59.536Z,95368.84
2022-11-16T11:53:44.209Z,95371.06
2022-11-16T11:56:15.200Z,95366.21
2022-11-16T11:58:46.568Z,95363.22
2022-11-16T12:01:19.510Z,95362.48
2022-11-16T12:04:20.373Z,95358.34
2022-11-16T12:07:10.349Z,95355.91
2022-11-16T12:09:59.842Z,95352.89
2022-11-16T12:12:56.379Z,95351.01
2022-11-16T12:15:42.137Z,95342.83
2022-11-16T12:18:31.082Z,95340.38
2022-11-16T12:21:13.725Z,95336.23
2022-11-16T12:24:33.958Z,95341.69
2022-11-16T12:27:27.353Z,95342.14
2022-11-16T12:30:15.612Z,95339.55
2022-11-16T12:32:49.828Z,95340.56
2022-11-16T12:35:34.120Z,95330.14
2022-11-16T12:38:26.235Z,95324.55
2022-11-16T12:41:26.324Z,95322.70
2022-11-16T12:44:11.830Z,95318.29
2022-11-16T12:47:04.906Z,95316.56
2022-11-16T12:50:15.974Z,95312.63
2022-11-16T12:53:21.593Z,95314.17
2022-11-16T12:56:10.571Z,95321.18
2022-11-16T12:58:58.307Z,95322.23
2022-11-16T13:01:45.066Z,95323.36
2022-11-16T13:04:26.531Z,95315.17
2022-11-16T13:07:13.361Z,95310.04
2022-11-16T13:09:51.896Z,95306.38
2022-11-16T13:12:23.946Z,95313.48
2022-11-16T13:15:00.198Z,95316.85
2022-11-16T13:17:34.942Z,95312.55
2022-11-16T13:20:46.923Z,95313.75
2022-11-16T13:23:32.787Z,95304.54
2022-11-16T13:26:22.454Z,95306.20
2022-11-16T13:29:15.530Z,95307.12
2022-11-16T13:32:20.097Z,95302.08
2022-11-16T13:34:52.340Z,95305.73
2022-11-16T13:37:41.579Z,95299.66
2022-11-16T13:40:24.405Z,95297.09
2022-11-16T13:43:13.535Z,95292.23
2022-11-16T13:45:54.914Z,95286.05
2022-11-16T13:48:36.691Z,95287.66
2022-11-16T13:51:24.180Z,95290.12
2022-11-16T13:56:51.604Z,95291.73
2022-11-16T13:59:28.747Z,95285.70
2022-11-16T14:02:24.187Z,95288.14
2022-11-16T14:05:02.748Z,95285.31
2022-11-16T14:07:36.586Z,95284.58
2022-11-16T14:10:08.452Z,95284.35
2022-11-16T14:12:55.361Z,95278.89
2022-11-16T14:15:44.142Z,95278.45
2022-11-16T14:18:14.718Z,95277.04
2022-11-16T14:20:59.788Z,95275.52
2022-11-16T14:23:51.967Z,95279.82
2022-11-16T14:26:25.835Z,95274.33
2022-11-16T14:29:04.924Z,95276.09
2022-11-16T14:31:58.367Z,95267.55
2022-11-16T14:34:33.447Z,95262.56
2022-11-16T14:37:03.773Z,95265.05
2022-11-16T14:39:43.833Z,95267.25
2022-11-16T14:42:25.087Z,95268.08
2022-11-16T14:45:08.431Z,95267.41
2022-11-16T14:47:39.734Z,95255.32
2022-11-16T14:50:38.063Z,95244.79
2022-11-16T14:53:16.511Z,95245.66
2022-11-16T14:55:47.004Z,95250.17
2022-11-16T14:58:24.309Z,95256.98
2022-11-16T15:01:02.694Z,95252.69
2022-11-16T15:04:03.291Z,95253.48
2022-11-16T15:06:50.854Z,95244.95
2022-11-16T15:09:31.187Z,95241.62
2022-11-16T15:12:40.651Z,95242.67
2022-11-16T15:15:15.857Z,95242.20
2022-11-16T15:18:01.324Z,95242.47
2022-11-16T15:20:34.348Z,95248.85
2022-11-16T15:23:13.324Z,95250.19
2022-11-16T15:25:53.059Z,95250.46
2022-11-16T15:28:28.612Z,95252.38
2022-11-16T15:31:05.257Z,95248.12
2022-11-16T15:33:41.895Z,95230.73
2022-11-16T15:36:39.848Z,95229.23
2022-11-16T15:39:22.517Z,95230.39
2022-11-16T15:42:00.470Z,95227.11
2022-11-16T15:44:34.364Z,95219.67
2022-11-16T15:47:04.696Z,95210.75
2022-11-16T15:49:40.682Z,95207.20
2022-11-16T15:52:11.752Z,95208.16
2022-11-16T15:55:21.085Z,95212.46
2022-11-16T15:58:13.688Z,95212.05
2022-11-16T16:00:48.801Z,95209.60
2022-11-16T16:03:23.609Z,95208.97
2022-11-16T16:05:55.154Z,95206.91
2022-11-16T16:08:30.676Z,95198.19
2022-11-16T16:11:11.307Z,95198.88
2022-11-16T16:14:01.094Z,95193.82
2022-11-16T16:16:39.967Z,95192.08
2022-11-16T16:19:25.720Z,95190.52
2022-11-16T16:22:01.816Z,95190.36
2022-11-16T16:24:43.556Z,95178.77
2022-11-16T16:27:17.447Z,95179.39
2022-11-16T16:29:49.356Z,95173.27
2022-11-16T16:32:34.610Z,95178.60
2022-11-16T16:35:17.073Z,95180.33
2022-11-16T16:37:52.534Z,95178.30
2022-11-16T16:40:22.834Z,95173.22
2022-11-16T16:42:55.229Z,95176.59
2022-11-16T16:45:35.490Z,95175.67
2022-11-16T16:48:07.301Z,95173.05
2022-11-16T16:50:40.642Z,95171.71
2022-11-16T16:53:14.782Z,95177.40
2022-11-16T16:55:47.573Z,95175.88
2022-11-16T16:58:17.969Z,95173.98
2022-11-16T17:00:48.312Z,95169.27
2022-11-16T17:03:18.431Z,95172.16
2022-11-16T17:05:48.501Z,95169.05
2022-11-16T17:08:18.839Z,95164.20
2022-11-16T17:10:50.760Z,95163.70
2022-11-16T17:13:20.790Z,95159.86
2022-11-16T17:15:51.140Z,95159.91
2022-11-16T17:18:22.528Z,95159.88
2022-11-16T17:20:52.890Z,95155.24
2022-11-16T17:23:21.885Z,95158.63
2022-11-16T17:25:52.521Z,95157.22
2022-11-16T17:28:22.755Z,95152.80
2022-11-16T17:30:53.269Z,95157.23
2022-11-16T17:33:23.629Z,95154.45
2022-11-16T17:35:58.328Z,95153.25
2022-11-16T17:38:28.719Z,95153.76
2022-11-16T17:41:06.439Z,95151.80
2022-11-16T17:43:36.894Z,95147.96
2022-11-16T17:46:09.692Z,95149.20
2022-11-16T17:48:43.689Z,95140.88
2022-11-16T17:51:15.834Z,95137.10
2022-11-16T17:53:45.939Z,95136.64
2022-11-16T17:56:21.585Z,95144.11
2022-11-16T17:58:51.336Z,95142.13
2022-11-16T18:01:20.245Z,95137.77
2022-11-16T18:03:49.248Z,95130.84
2022-11-16T18:06:23.476Z,95127.58
2022-11-16T18:08:54.006Z,95126.55
2022-11-16T18:11:26.249Z,95130.02
2022-11-16T18:13:58.994Z,95123.56
2022-11-16T18:16:32.211Z,95124.33
2022-11-16T18:19:04.590Z,95123.64
2022-11-16T18:21:44.198Z,95119.96
2022-11-16T18:24:14.257Z,95116.90
2022-11-16T18:26:44.736Z,95117.35
2022-11-16T18:29:16.413Z,95120.34
2022-11-16T18:31:47.341Z,95119.20
2022-11-16T18:34:18.215Z,95116.65
2022-11-16T18:36:50.600Z,95110.39
2022-11-16T18:39:20.966Z,95110.63
2022-11-16T18:41:55.239Z,95114.36
2022-11-16T18:44:25.603Z,95108.36
2022-11-16T18:46:56.009Z,95105.64
2022-11-16T18:49:26.345Z,95101.06
2022-11-16T18:51:56.792Z,95107.58
2022-11-16T18:54:27.136Z,95105.98
2022-11-16T18:56:57.353Z,95104.55
2022-11-16T18:59:27.916Z,95105.17
2022-11-16T19:01:56.966Z,95103.55
2022-11-16T19:04:29.200Z,95095.91
2022-11-16T19:06:59.804Z,95091.52
2022-11-16T19:09:29.534Z,95090.11
2022-11-16T19:12:01.799Z,95097.77
2022-11-16T19:14:31.760Z,95096.56
2022-11-16T19:17:04.468Z,95096.31
2022-11-16T19:19:34.744Z,95096.06
2022-11-16T19:22:06.508Z,95091.18
2022-11-16T19:24:36.726Z,95090.24
2022-11-16T19:27:09.472Z,95086.77
2022-11-16T19:29:39.647Z,95091.20
2022-11-16T19:32:09.657Z,95091.18
2022-11-16T19:34:39.928Z,95088.60
2022-11-16T19:37:09.221Z,95093.40
2022-11-16T19:39:39.198Z,95094.86
2022-11-16T19:42:08.807Z,95091.98
2022-11-16T19:44:39.169Z,95087.65
2022-11-16T19:47:09.763Z,95082.48
2022-11-16T19:49:40.084Z,95081.21
2022-11-16T19:52:10.873Z,95073.08
2022-11-16T19:54:41.545Z,95067.45
2022-11-16T19:57:12.309Z,95068.41
2022-11-16T19:59:42.469Z,95063.77
2022-11-16T20:02:12.928Z,95065.41
2022-11-16T20:04:43.369Z,95060.04
2022-11-16T20:07:14.029Z,95057.85
2022-11-16T20:09:42.937Z,95059.85
2022-11-16T20:12:11.892Z,95057.34
2022-11-16T20:14:41.987Z,95058.39
2022-11-16T20:17:13.669Z,95055.56
2022-11-16T20:19:44.263Z,95056.89
2022-11-16T20:22:15.964Z,95052.15
2022-11-16T20:24:46.099Z,95050.75
2022-11-16T20:27:16.865Z,95051.14
2022-11-16T20:29:46.952Z,95044.90
2022-11-16T20:32:17.318Z,95038.70
2022-11-16T20:34:47.391Z,95038.14
2022-11-16T20:37:17.725Z,95033.98
2022-11-16T20:39:53.734Z,95030.40
2022-11-16T20:42:24.507Z,95028.35
2022-11-16T20:44:54.471Z,95021.67
2022-11-16T20:47:24.674Z,95016.85
2022-11-16T20:49:54.952Z,95009.23
2022-11-16T20:52:25.065Z,95004.80
2022-11-16T20:54:54.315Z,95007.02
2022-11-16T20:57:25.466Z,95005.67
2022-11-16T20:59:55.554Z,95004.67
2022-11-16T21:02:25.160Z,94999.29
2022-11-16T21:05:00.233Z,95002.23
2022-11-16T21:07:32.117Z,95002.28
2022-11-16T21:10:21.408Z,94999.63
2022-11-16T21:13:11.177Z,94994.78
2022-11-16T21:15:40.130Z,94992.42
2022-11-16T21:18:10.652Z,94992.09
2022-11-16T21:20:41.109Z,94984.21
2022-11-16T21:23:11.169Z,94983.42
2022-11-16T21:25:41.536Z,94980.72
2022-11-16T21:28:11.984Z,94983.90
2022-11-16T21:30:42.240Z,94983.36
2022-11-16T21:33:11.159Z,94977.89
2022-11-16T21:35:41.578Z,94970.91
2022-11-16T21:38:11.934Z,94967.30
2022-11-16T21:40:42.546Z,94968.27
2022-11-16T21:43:18.161Z,94970.30
2022-11-16T21:45:49.579Z,94973.39
2022-11-16T21:48:19.875Z,94976.69
2022-11-16T21:51:03.284Z,94971.40
2022-11-16T21:53:34.010Z,94962.00
2022-11-16T21:56:06.300Z,94958.83
2022-11-16T21:58:36.700Z,94962.56
2022-11-16T22:01:06.943Z,94959.58
2022-11-16T22:03:37.401Z,94961.09
2022-11-16T22:06:32.782Z,94963.19
2022-11-16T22:09:05.144Z,94956.16
2022-11-16T22:11:35.302Z,94951.10
2022-11-16T22:14:05.378Z,94951.84
2022-11-16T22:16:36.312Z,94946.04
2022-11-16T22:19:05.994Z,94942.13
2022-11-16T22:21:34.997Z,94941.21
2022-11-16T22:24:05.507Z,94935.57
2022-11-16T22:26:35.726Z,94930.23
2022-11-16T22:29:06.310Z,94931.95
2022-11-16T22:31:36.716Z,94930.33
2022-11-16T22:34:06.664Z,94935.58
2022-11-16T22:36:37.099Z,94931.05
2022-11-16T22:39:07.398Z,94932.27
2022-11-16T22:41:37.698Z,94927.54
2022-11-16T22:44:08.098Z,94923.98
2022-11-16T22:46:38.627Z,94917.35
2022-11-16T22:49:08.957Z,94916.55
2022-11-16T22:51:39.885Z,94917.77
2022-11-16T22:54:11.939Z,94918.69
2022-11-16T22:56:43.313Z,94915.29
2022-11-16T22:59:13.878Z,94912.79
2022-11-16T23:01:44.175Z,94906.77
2022-11-16T23:04:14.593Z,94904.84
2022-11-16T23:06:44.915Z,94902.90
2022-11-16T23:09:15.409Z,94903.34
2022-11-16T23:12:05.371Z,94906.41
2022-11-16T23:14:55.780Z,94899.75
2022-11-16T23:17:26.055Z,94897.06
2022-11-16T23:20:17.768Z,94888.02
2022-11-16T23:23:07.683Z,94893.96
2022-11-16T23:25:57.472Z,94887.34
2022-11-16T23:28:27.735Z,94880.44
2022-11-16T23:30:58.097Z,94878.27
2022-11-16T23:33:48.336Z,94876.55
2022-11-16T23:36:18.709Z,94874.74
2022-11-16T23:38:48.509Z,94876.70
2022-11-16T23:41:38.629Z,94874.53
2022-11-16T23:44:09.154Z,94874.25
2022-11-16T23:46:39.740Z,94873.31
2022-11-16T23:49:10.308Z,94869.29
2022-11-16T23:51:41.324Z,94860.17
2022-11-16T23:54:13.868Z,94846.61
2022-11-16T23:56:44.783Z,94851.33
2022-11-16T23:59:15.215Z,94851.65
